Terminal Aerodrome Forecast
Issued by NWS Grand Forks, ND

Home | Current Version | Previous Version | Text Only | Print | Product List | Glossary Off
Versions: 1 2 3 4 5 6 7 8 9 10 11 12 13 14 15

000
FTUS43 KFGF 121700
TAFGFK
TAF
KGFK 121720Z 1218/1318 24009KT P6SM SCT100
     FM121900 27015G22KT P6SM BKN080
     FM130000 31017KT P6SM VCTS BKN080CB
     FM130400 32012KT P6SM SCT080
     FM131500 33017KT P6SM SKC=

USA.gov is the U.S. government's official web portal to all federal, state and local government web resources and services.